createdAt,value
2018-05-26T00:01:25.623Z,74.55
2018-05-26T00:03:56.598Z,74.99
2018-05-26T00:06:27.596Z,74.91
2018-05-26T00:08:58.620Z,74.71
2018-05-26T00:11:29.657Z,74.75
2018-05-26T00:14:00.671Z,74.75
2018-05-26T00:16:31.686Z,74.92
2018-05-26T00:19:02.655Z,75.05
2018-05-26T00:21:33.661Z,74.78
2018-05-26T00:24:04.677Z,74.86
2018-05-26T00:26:35.626Z,74.62
2018-05-26T00:29:06.670Z,74.54
2018-05-26T00:31:37.672Z,74.64
2018-05-26T00:34:08.724Z,74.65
2018-05-26T00:36:39.734Z,74.65
2018-05-26T00:39:10.787Z,74.74
2018-05-26T00:41:41.768Z,74.89
2018-05-26T00:44:12.768Z,74.91
2018-05-26T00:46:43.745Z,75.09
2018-05-26T00:49:14.753Z,75.02
2018-05-26T00:51:45.763Z,74.87
2018-05-26T00:54:16.795Z,74.89
2018-05-26T00:56:47.800Z,74.98
2018-05-26T00:59:18.823Z,74.87
2018-05-26T01:01:49.835Z,74.97
2018-05-26T01:04:20.879Z,75.08
2018-05-26T01:06:51.899Z,74.92
2018-05-26T01:09:22.886Z,75.03
2018-05-26T01:11:53.845Z,75.20
2018-05-26T01:14:24.887Z,74.89
2018-05-26T01:16:55.949Z,74.77
2018-05-26T01:19:26.974Z,74.75
2018-05-26T01:21:57.958Z,74.92
2018-05-26T01:24:29.040Z,75.40
2018-05-26T01:27:00.016Z,75.25
2018-05-26T01:29:31.016Z,75.36
2018-05-26T01:32:02.088Z,75.44
2018-05-26T01:34:33.114Z,75.44
2018-05-26T01:37:04.178Z,75.34
2018-05-26T01:39:35.202Z,75.50
2018-05-26T01:42:06.194Z,75.66
2018-05-26T01:44:37.188Z,75.75
2018-05-26T01:47:08.200Z,75.78
2018-05-26T01:49:39.210Z,76.18
2018-05-26T01:52:10.239Z,76.24
2018-05-26T01:54:41.209Z,76.16
2018-05-26T01:57:12.222Z,76.05
2018-05-26T01:59:43.217Z,75.83
2018-05-26T02:02:14.206Z,76.07
2018-05-26T02:04:45.227Z,76.48
2018-05-26T02:07:16.209Z,76.57
2018-05-26T02:09:47.245Z,76.44
2018-05-26T02:12:18.284Z,76.01
2018-05-26T02:14:49.282Z,75.60
2018-05-26T02:17:20.306Z,75.13
2018-05-26T02:19:51.282Z,75.00
2018-05-26T02:22:22.298Z,74.97
2018-05-26T02:24:53.330Z,74.79
2018-05-26T02:27:24.333Z,74.61
2018-05-26T02:29:55.299Z,74.46
2018-05-26T02:32:26.324Z,74.46
2018-05-26T02:34:57.350Z,74.06
2018-05-26T02:37:28.352Z,73.73
2018-05-26T02:39:59.325Z,73.49
2018-05-26T02:42:30.295Z,73.22
2018-05-26T02:45:01.278Z,73.45
2018-05-26T02:47:32.248Z,73.63
2018-05-26T02:50:03.244Z,73.97
2018-05-26T02:52:34.235Z,74.02
2018-05-26T02:55:05.256Z,73.91
2018-05-26T02:57:36.216Z,74.11
2018-05-26T03:00:07.224Z,74.05
2018-05-26T03:02:38.221Z,74.29
2018-05-26T03:05:15.251Z,74.25
2018-05-26T03:07:52.565Z,74.12
2018-05-26T03:10:29.636Z,74.60
2018-05-26T03:13:06.886Z,74.55
2018-05-26T03:15:37.909Z,74.72
2018-05-26T03:18:09.980Z,74.55
2018-05-26T03:20:40.974Z,74.22
2018-05-26T03:23:12.026Z,73.70
2018-05-26T03:25:43.003Z,73.17
2018-05-26T03:28:14.006Z,73.24
2018-05-26T03:30:45.026Z,73.41
2018-05-26T03:33:16.009Z,73.26
2018-05-26T03:35:47.002Z,73.04
2018-05-26T03:38:18.002Z,72.59
2018-05-26T03:40:49.006Z,72.13
2018-05-26T03:43:19.971Z,71.63
2018-05-26T03:45:50.991Z,71.75
2018-05-26T03:48:21.946Z,71.62
2018-05-26T03:50:52.944Z,71.99
2018-05-26T03:53:23.940Z,71.92
2018-05-26T03:56:07.347Z,72.16
2018-05-26T03:58:50.546Z,72.48
2018-05-26T04:01:21.566Z,72.60
2018-05-26T04:03:53.371Z,72.16
2018-05-26T04:06:24.404Z,71.70
2018-05-26T04:08:55.411Z,71.34
2018-05-26T04:11:26.532Z,70.99
2018-05-26T04:13:57.443Z,70.97
2018-05-26T04:16:28.452Z,70.63
2018-05-26T04:18:59.456Z,70.68
2018-05-26T04:21:30.494Z,70.62
2018-05-26T04:24:01.503Z,70.50
2018-05-26T04:26:32.517Z,70.26
2018-05-26T04:29:03.472Z,70.33
2018-05-26T04:31:34.489Z,69.76
2018-05-26T04:34:05.524Z,69.45
2018-05-26T04:36:36.548Z,69.02
2018-05-26T04:39:07.612Z,68.44
2018-05-26T04:41:38.644Z,67.90
2018-05-26T04:44:09.660Z,67.20
2018-05-26T04:46:40.673Z,66.96
2018-05-26T04:49:11.726Z,66.80
2018-05-26T04:51:42.718Z,66.73
2018-05-26T04:54:13.738Z,66.51
2018-05-26T04:56:44.761Z,66.51
2018-05-26T04:59:16.539Z,66.25
2018-05-26T05:01:48.242Z,65.97
2018-05-26T05:04:27.184Z,65.72
2018-05-26T05:06:58.256Z,65.29
2018-05-26T05:09:29.639Z,64.57
2018-05-26T05:12:00.971Z,64.39
2018-05-26T05:14:32.373Z,64.12
2018-05-26T05:17:05.524Z,63.59
2018-05-26T05:19:36.581Z,63.19
2018-05-26T05:22:07.561Z,62.74
2018-05-26T05:24:38.597Z,61.78
2018-05-26T05:27:09.605Z,61.70
2018-05-26T05:29:40.616Z,61.55
2018-05-26T05:32:11.638Z,60.22
2018-05-26T05:34:42.663Z,60.37
2018-05-26T05:37:13.706Z,60.32
2018-05-26T05:39:44.688Z,60.22
2018-05-26T05:42:15.696Z,60.98
2018-05-26T05:44:46.716Z,60.98
2018-05-26T05:47:17.731Z,60.67
2018-05-26T05:49:48.737Z,60.28
2018-05-26T05:52:19.770Z,59.18
2018-05-26T05:54:50.796Z,59.17
2018-05-26T05:57:21.796Z,58.75
2018-05-26T05:59:52.802Z,58.27
2018-05-26T06:02:23.845Z,57.55
2018-05-26T06:04:54.819Z,57.07
2018-05-26T06:07:25.807Z,57.36
2018-05-26T06:09:56.841Z,57.25
2018-05-26T06:12:27.834Z,57.42
2018-05-26T06:14:58.889Z,57.02
2018-05-26T06:17:29.923Z,55.84
2018-05-26T06:20:00.937Z,54.80
2018-05-26T06:22:32.019Z,53.98
2018-05-26T06:25:03.052Z,53.39
2018-05-26T06:27:34.074Z,52.66
2018-05-26T06:30:05.121Z,52.41
2018-05-26T06:32:36.150Z,50.77
2018-05-26T06:35:07.202Z,48.12
2018-05-26T06:37:38.248Z,45.40
2018-05-26T06:40:09.270Z,43.00
2018-05-26T06:42:40.285Z,41.27
2018-05-26T06:45:11.300Z,40.11
2018-05-26T06:47:42.334Z,38.47
2018-05-26T06:50:13.388Z,36.09
2018-05-26T06:52:44.384Z,34.33
2018-05-26T06:55:15.379Z,30.24
2018-05-26T06:57:46.368Z,26.35
2018-05-26T07:00:17.420Z,25.80
2018-05-26T07:02:48.376Z,27.30
2018-05-26T07:05:19.411Z,27.53
2018-05-26T07:07:57.455Z,21.83
2018-05-26T07:10:28.470Z,19.42
2018-05-26T07:12:59.460Z,20.28
2018-05-26T07:15:30.485Z,16.53
2018-05-26T07:18:01.499Z,13.06
2018-05-26T07:20:32.572Z,10.67
2018-05-26T07:23:03.598Z,9.27
2018-05-26T07:25:34.562Z,8.17
2018-05-26T07:28:05.607Z,7.81
2018-05-26T07:30:36.610Z,6.97
2018-05-26T07:33:07.610Z,6.48
2018-05-26T07:35:38.602Z,5.91
2018-05-26T07:38:09.618Z,5.47
2018-05-26T07:40:40.598Z,5.25
2018-05-26T07:43:11.683Z,5.49
2018-05-26T07:45:42.699Z,5.47
2018-05-26T07:48:13.783Z,5.21
2018-05-26T07:50:44.765Z,4.70
2018-05-26T07:53:15.807Z,4.58
2018-05-26T07:55:46.809Z,4.63
2018-05-26T07:58:17.884Z,4.19
2018-05-26T08:00:48.929Z,5.10
2018-05-26T08:03:19.957Z,5.54
2018-05-26T08:05:50.985Z,5.67
2018-05-26T08:08:22.022Z,5.62
2018-05-26T08:10:53.059Z,5.32
2018-05-26T08:13:24.091Z,5.28
2018-05-26T08:15:55.256Z,5.25
2018-05-26T08:18:26.271Z,4.47
2018-05-26T08:20:57.281Z,4.54
2018-05-26T08:23:28.307Z,4.13
2018-05-26T08:25:59.357Z,3.93
2018-05-26T08:28:30.363Z,3.59
2018-05-26T08:31:01.379Z,3.43
2018-05-26T08:33:32.410Z,3.70
2018-05-26T08:36:03.417Z,3.64
2018-05-26T08:38:34.462Z,3.28
2018-05-26T08:41:05.459Z,3.44
2018-05-26T08:43:36.470Z,3.68
2018-05-26T08:46:07.476Z,4.11
2018-05-26T08:48:38.495Z,3.81
2018-05-26T08:51:09.625Z,3.58
2018-05-26T08:53:40.713Z,3.64
2018-05-26T08:56:11.913Z,3.44
2018-05-26T08:58:42.994Z,3.08
2018-05-26T09:01:14.020Z,3.28
2018-05-26T09:03:45.060Z,3.29
2018-05-26T09:06:16.042Z,3.28
2018-05-26T09:08:47.067Z,3.25
2018-05-26T09:11:18.128Z,3.61
2018-05-26T09:13:49.121Z,3.77
2018-05-26T09:16:20.188Z,3.67
2018-05-26T09:18:51.173Z,4.10
2018-05-26T09:21:22.198Z,4.19
2018-05-26T09:23:53.228Z,3.88
2018-05-26T09:26:24.240Z,3.73
2018-05-26T09:28:55.284Z,3.74
2018-05-26T09:31:26.363Z,4.20
2018-05-26T09:33:57.377Z,4.17
2018-05-26T09:36:28.418Z,3.83
2018-05-26T09:38:59.509Z,3.73
2018-05-26T09:41:30.596Z,3.65
2018-05-26T09:44:01.606Z,3.67
2018-05-26T09:46:32.613Z,3.92
2018-05-26T09:49:03.633Z,3.95
2018-05-26T09:51:34.678Z,3.87
2018-05-26T09:54:05.714Z,4.10
2018-05-26T09:56:36.703Z,4.28
2018-05-26T09:59:07.671Z,4.51
2018-05-26T10:01:38.692Z,4.78
2018-05-26T10:04:09.741Z,4.74
2018-05-26T10:06:40.889Z,4.84
2018-05-26T10:09:11.964Z,4.66
2018-05-26T10:11:42.970Z,4.96
2018-05-26T10:14:14.225Z,6.29
2018-05-26T10:16:45.240Z,7.14
2018-05-26T10:19:16.316Z,7.16
2018-05-26T10:21:47.316Z,7.37
2018-05-26T10:24:18.351Z,8.72
2018-05-26T10:26:49.407Z,9.47
2018-05-26T10:29:20.438Z,9.99
2018-05-26T10:31:51.477Z,10.10
2018-05-26T10:34:22.543Z,10.26
2018-05-26T10:36:53.522Z,9.79
2018-05-26T10:39:24.547Z,9.06
2018-05-26T10:41:55.575Z,8.45
2018-05-26T10:44:26.692Z,8.36
2018-05-26T10:46:57.759Z,8.14
2018-05-26T10:49:28.796Z,9.03
2018-05-26T10:51:59.836Z,11.22
2018-05-26T10:54:30.843Z,12.83
2018-05-26T10:57:01.879Z,13.56
2018-05-26T10:59:32.867Z,15.11
2018-05-26T11:02:03.905Z,17.11
2018-05-26T11:04:34.934Z,19.11
2018-05-26T11:07:05.986Z,20.35
2018-05-26T11:09:36.972Z,21.19
2018-05-26T11:12:07.944Z,22.70
2018-05-26T11:14:39.019Z,23.70
2018-05-26T11:17:10.130Z,23.57
2018-05-26T11:19:41.150Z,23.79
2018-05-26T11:22:12.164Z,24.25
2018-05-26T11:24:43.286Z,24.75
2018-05-26T11:27:14.223Z,24.43
2018-05-26T11:29:45.331Z,24.55
2018-05-26T11:32:16.344Z,24.58
2018-05-26T11:34:47.365Z,25.14
2018-05-26T11:37:18.411Z,24.94
2018-05-26T11:39:49.372Z,25.41
2018-05-26T11:42:20.410Z,26.02
2018-05-26T11:44:51.401Z,26.11
2018-05-26T11:47:22.435Z,26.80
2018-05-26T11:49:53.423Z,26.76
2018-05-26T11:52:24.434Z,26.83
2018-05-26T11:54:55.440Z,25.34
2018-05-26T11:57:26.417Z,25.78
2018-05-26T11:59:57.528Z,25.91
2018-05-26T12:02:28.524Z,25.84
2018-05-26T12:04:59.572Z,25.89
2018-05-26T12:07:30.594Z,25.64
2018-05-26T12:10:01.704Z,25.99
2018-05-26T12:12:32.742Z,26.29
2018-05-26T12:15:03.811Z,26.53
2018-05-26T12:17:34.794Z,26.59
2018-05-26T12:20:05.851Z,25.89
2018-05-26T12:22:36.893Z,26.38
2018-05-26T12:25:07.983Z,25.99
2018-05-26T12:27:39.004Z,25.21
2018-05-26T12:30:10.023Z,24.96
2018-05-26T12:32:41.027Z,25.08
2018-05-26T12:35:12.025Z,24.68
2018-05-26T12:37:43.035Z,24.21
2018-05-26T12:40:14.060Z,23.79
2018-05-26T12:42:45.125Z,23.26
2018-05-26T12:45:16.142Z,23.05
2018-05-26T12:47:47.122Z,22.83
2018-05-26T12:50:18.132Z,23.37
2018-05-26T12:52:49.424Z,23.80
2018-05-26T12:55:20.484Z,23.82
2018-05-26T12:57:51.539Z,23.56
2018-05-26T13:00:22.663Z,23.47
2018-05-26T13:02:53.721Z,23.67
2018-05-26T13:05:24.818Z,24.32
2018-05-26T13:07:55.811Z,23.98
2018-05-26T13:10:26.892Z,24.09
2018-05-26T13:12:57.965Z,23.82
2018-05-26T13:15:28.993Z,23.80
2018-05-26T13:18:00.051Z,23.75
2018-05-26T13:20:31.122Z,23.84
2018-05-26T13:23:02.244Z,23.83
2018-05-26T13:25:33.268Z,23.25
2018-05-26T13:28:04.339Z,23.12
2018-05-26T13:30:35.357Z,22.86
2018-05-26T13:33:06.364Z,22.32
2018-05-26T13:35:37.404Z,22.03
2018-05-26T13:38:08.385Z,21.96
2018-05-26T13:40:39.480Z,21.53
2018-05-26T13:43:10.522Z,21.55
2018-05-26T13:45:41.564Z,21.52
2018-05-26T13:48:12.680Z,20.92
2018-05-26T13:50:43.713Z,20.65
2018-05-26T13:53:14.782Z,19.59
2018-05-26T13:55:45.779Z,19.65
2018-05-26T13:58:16.898Z,19.22
2018-05-26T14:00:47.913Z,18.48
2018-05-26T14:03:18.916Z,18.26
2018-05-26T14:05:49.918Z,17.83
2018-05-26T14:08:21.016Z,18.06
2018-05-26T14:10:52.003Z,18.21
2018-05-26T14:13:23.092Z,18.55
2018-05-26T14:15:54.104Z,19.56
2018-05-26T14:18:25.125Z,19.55
2018-05-26T14:20:56.163Z,19.07
2018-05-26T14:23:27.926Z,18.66
2018-05-26T14:25:59.073Z,18.75
2018-05-26T14:28:30.112Z,19.45
2018-05-26T14:31:01.202Z,20.43
2018-05-26T14:33:32.295Z,20.58
2018-05-26T14:36:03.437Z,20.83
2018-05-26T14:38:34.422Z,20.73
2018-05-26T14:41:05.508Z,20.90
2018-05-26T14:43:36.601Z,21.17
2018-05-26T14:46:07.681Z,21.04
2018-05-26T14:48:38.730Z,21.06
2018-05-26T14:51:09.732Z,21.26
2018-05-26T14:53:40.754Z,20.60
2018-05-26T14:56:11.766Z,21.35
2018-05-26T14:58:42.862Z,21.97
2018-05-26T15:01:13.897Z,22.36
2018-05-26T15:03:44.966Z,22.60
2018-05-26T15:06:15.960Z,23.13
2018-05-26T15:08:46.998Z,22.97
2018-05-26T15:11:18.235Z,23.38
2018-05-26T15:13:49.317Z,23.38
2018-05-26T15:16:20.365Z,22.96
2018-05-26T15:18:51.377Z,22.44
2018-05-26T15:21:22.402Z,22.39
2018-05-26T15:23:53.419Z,21.81
2018-05-26T15:26:24.472Z,21.63
2018-05-26T15:28:55.621Z,20.92
2018-05-26T15:31:26.631Z,20.77
2018-05-26T15:33:57.712Z,20.56
2018-05-26T15:36:28.779Z,20.54
2018-05-26T15:38:59.770Z,20.74
2018-05-26T15:41:30.832Z,21.58
2018-05-26T15:44:01.840Z,21.93
2018-05-26T15:46:32.873Z,21.50
2018-05-26T15:49:03.954Z,21.27
2018-05-26T15:51:34.981Z,21.90
2018-05-26T15:54:06.006Z,22.38
2018-05-26T15:56:37.032Z,22.61
2018-05-26T15:59:08.092Z,22.64
2018-05-26T16:01:39.157Z,22.20
2018-05-26T16:04:10.194Z,22.49
2018-05-26T16:06:41.226Z,22.70
2018-05-26T16:09:12.275Z,23.35
2018-05-26T16:11:43.290Z,23.63
2018-05-26T16:14:14.332Z,23.89
2018-05-26T16:16:45.328Z,24.38
2018-05-26T16:19:16.376Z,24.75
2018-05-26T16:21:47.408Z,24.71
2018-05-26T16:24:18.366Z,24.81
2018-05-26T16:26:49.387Z,24.55
2018-05-26T16:29:20.365Z,24.94
2018-05-26T16:31:51.413Z,25.62
2018-05-26T16:34:22.408Z,26.13
2018-05-26T16:36:53.431Z,25.48
2018-05-26T16:39:24.408Z,25.33
2018-05-26T16:41:55.448Z,24.47
2018-05-26T16:44:26.429Z,23.88
2018-05-26T16:46:57.451Z,24.46
2018-05-26T16:49:28.517Z,25.94
2018-05-26T16:51:59.523Z,26.94
2018-05-26T16:54:30.542Z,27.36
2018-05-26T16:57:01.546Z,27.21
2018-05-26T16:59:32.594Z,26.43
2018-05-26T17:02:03.577Z,26.67
2018-05-26T17:04:34.578Z,27.41
2018-05-26T17:07:05.581Z,28.14
2018-05-26T17:09:36.623Z,28.44
2018-05-26T17:12:07.631Z,28.27
2018-05-26T17:14:38.827Z,28.46
2018-05-26T17:17:09.964Z,29.02
2018-05-26T17:19:41.023Z,28.95
2018-05-26T17:22:12.035Z,28.20
2018-05-26T17:24:43.149Z,28.02
2018-05-26T17:27:14.160Z,28.34
2018-05-26T17:29:45.185Z,28.59
2018-05-26T17:32:16.239Z,28.96
2018-05-26T17:34:47.284Z,29.38
2018-05-26T17:37:18.335Z,29.94
2018-05-26T17:39:49.331Z,30.09
2018-05-26T17:42:20.377Z,30.51
2018-05-26T17:44:51.416Z,30.71
2018-05-26T17:47:22.446Z,30.91
2018-05-26T17:49:53.498Z,31.21
2018-05-26T17:52:24.591Z,31.55
2018-05-26T17:54:55.629Z,31.60
2018-05-26T17:57:26.659Z,32.32
2018-05-26T17:59:57.638Z,32.83
2018-05-26T18:02:28.626Z,33.75
2018-05-26T18:04:59.654Z,34.63
2018-05-26T18:07:30.754Z,34.80
2018-05-26T18:10:01.784Z,35.11
2018-05-26T18:12:32.791Z,35.39
2018-05-26T18:15:03.834Z,35.83
2018-05-26T18:17:35.004Z,36.09
2018-05-26T18:20:06.084Z,36.40
2018-05-26T18:22:37.082Z,36.67
2018-05-26T18:25:08.144Z,37.02
2018-05-26T18:27:39.146Z,37.19
2018-05-26T18:30:10.307Z,37.24
2018-05-26T18:32:41.348Z,37.59
2018-05-26T18:35:12.413Z,37.90
2018-05-26T18:37:43.409Z,37.98
2018-05-26T18:40:14.400Z,38.20
2018-05-26T18:42:45.433Z,38.18
2018-05-26T18:45:16.415Z,38.63
2018-05-26T18:47:47.443Z,38.41
2018-05-26T18:50:18.430Z,38.45
2018-05-26T18:52:49.464Z,38.63
2018-05-26T18:55:20.472Z,38.91
2018-05-26T18:57:51.485Z,39.06
2018-05-26T19:00:22.515Z,39.08
2018-05-26T19:02:53.555Z,39.42
2018-05-26T19:05:24.561Z,39.68
2018-05-26T19:07:55.532Z,39.74
2018-05-26T19:10:26.553Z,39.75
2018-05-26T19:12:57.594Z,39.85
2018-05-26T19:15:28.752Z,40.23
2018-05-26T19:17:59.803Z,40.35
2018-05-26T19:20:30.840Z,40.61
2018-05-26T19:23:01.827Z,40.94
2018-05-26T19:25:32.876Z,40.90
2018-05-26T19:28:03.854Z,41.19
2018-05-26T19:30:34.902Z,41.40
2018-05-26T19:33:05.839Z,41.59
2018-05-26T19:35:36.928Z,41.74
2018-05-26T19:38:07.922Z,41.91
2018-05-26T19:40:38.965Z,42.24
2018-05-26T19:43:09.961Z,42.31
2018-05-26T19:45:41.000Z,42.50
2018-05-26T19:48:12.040Z,42.84
2018-05-26T19:50:44.035Z,43.66
2018-05-26T19:53:15.024Z,43.72
2018-05-26T19:55:46.029Z,43.87
2018-05-26T19:58:17.056Z,44.05
2018-05-26T20:00:48.085Z,44.81
2018-05-26T20:03:19.117Z,45.22
2018-05-26T20:05:50.140Z,45.60
2018-05-26T20:08:21.158Z,45.84
2018-05-26T20:10:52.193Z,45.96
2018-05-26T20:13:23.197Z,46.06
2018-05-26T20:15:54.257Z,46.12
2018-05-26T20:18:25.240Z,46.41
2018-05-26T20:20:56.278Z,46.58
2018-05-26T20:23:27.324Z,47.13
2018-05-26T20:25:58.364Z,47.85
2018-05-26T20:28:29.358Z,48.26
2018-05-26T20:31:00.370Z,48.79
2018-05-26T20:33:31.448Z,49.27
2018-05-26T20:36:02.561Z,49.41
2018-05-26T20:38:33.534Z,49.51
2018-05-26T20:41:04.649Z,49.70
2018-05-26T20:43:35.697Z,49.96
2018-05-26T20:46:06.738Z,50.42
2018-05-26T20:48:37.753Z,50.60
2018-05-26T20:51:08.808Z,50.70
2018-05-26T20:53:39.844Z,50.87
2018-05-26T20:56:10.804Z,51.10
2018-05-26T20:58:41.817Z,51.28
2018-05-26T21:01:12.845Z,51.55
2018-05-26T21:03:51.032Z,52.00
2018-05-26T21:06:22.006Z,52.36
2018-05-26T21:08:53.037Z,52.42
2018-05-26T21:11:24.028Z,52.62
2018-05-26T21:13:55.063Z,52.85
2018-05-26T21:16:26.059Z,53.19
2018-05-26T21:18:57.063Z,52.88
2018-05-26T21:21:28.062Z,53.54
2018-05-26T21:23:59.080Z,53.36
2018-05-26T21:26:30.058Z,53.40
2018-05-26T21:29:01.103Z,53.44
2018-05-26T21:31:32.076Z,53.63
2018-05-26T21:34:03.071Z,54.26
2018-05-26T21:36:34.109Z,54.17
2018-05-26T21:39:05.145Z,54.34
2018-05-26T21:41:36.183Z,54.76
2018-05-26T21:44:07.139Z,55.25
2018-05-26T21:46:38.135Z,55.82
2018-05-26T21:49:09.173Z,56.29
2018-05-26T21:51:40.218Z,56.36
2018-05-26T21:54:11.247Z,56.18
2018-05-26T21:56:42.284Z,56.39
2018-05-26T21:59:13.349Z,56.63
2018-05-26T22:01:44.389Z,56.72
2018-05-26T22:04:15.343Z,57.19
2018-05-26T22:06:46.373Z,56.83
2018-05-26T22:09:17.403Z,57.08
2018-05-26T22:11:48.404Z,57.30
2018-05-26T22:14:19.420Z,57.55
2018-05-26T22:19:17.578Z,58.44
2018-05-26T22:21:48.582Z,58.20
2018-05-26T22:24:19.618Z,57.83
2018-05-26T22:26:50.609Z,57.71
2018-05-26T22:29:21.673Z,57.39
2018-05-26T22:31:52.642Z,57.28
2018-05-26T22:34:23.638Z,57.10
2018-05-26T22:36:54.633Z,57.23
2018-05-26T22:39:25.654Z,57.63
2018-05-26T22:41:56.635Z,57.81
2018-05-26T22:44:27.685Z,58.49
2018-05-26T22:46:58.718Z,59.01
2018-05-26T22:49:29.764Z,59.58
2018-05-26T22:52:00.749Z,59.76
2018-05-26T22:54:31.706Z,59.55
2018-05-26T22:57:02.735Z,59.50
2018-05-26T22:59:33.764Z,59.59
2018-05-26T23:02:04.783Z,59.54
2018-05-26T23:04:35.834Z,59.74
2018-05-26T23:07:06.912Z,60.49
2018-05-26T23:09:37.901Z,61.02
2018-05-26T23:12:08.894Z,61.08
2018-05-26T23:14:39.920Z,61.17
2018-05-26T23:17:10.932Z,60.97
2018-05-26T23:19:42.000Z,60.76
2018-05-26T23:22:12.993Z,60.96
2018-05-26T23:24:44.014Z,61.06
2018-05-26T23:27:22.074Z,61.08
2018-05-26T23:29:53.096Z,61.17
2018-05-26T23:32:24.098Z,61.27
2018-05-26T23:34:55.120Z,61.41
2018-05-26T23:37:26.110Z,61.47
2018-05-26T23:39:57.118Z,61.61
2018-05-26T23:42:28.152Z,61.84
2018-05-26T23:44:59.130Z,61.73
2018-05-26T23:47:30.140Z,61.74
2018-05-26T23:50:01.200Z,61.78
2018-05-26T23:52:32.189Z,62.10
2018-05-26T23:55:03.268Z,62.45
2018-05-26T23:57:34.235Z,62.81
